sensor_id;sensor_type;location;lat;lon;timestamp;pressure;altitude;pressure_sealevel;temperature;humidity
68988;BME280;56038;46.080;11.116;2023-05-09T00:00:38;99617.28;;;16.13;90.15
68988;BME280;56038;46.080;11.116;2023-05-09T00:05:54;99602.41;;;16.12;90.25
68988;BME280;56038;46.080;11.116;2023-05-09T00:11:02;99599.00;;;16.10;90.17
68988;BME280;56038;46.080;11.116;2023-05-09T00:16:04;99598.69;;;16.01;90.95
68988;BME280;56038;46.080;11.116;2023-05-09T00:21:07;99601.34;;;16.01;91.15
68988;BME280;56038;46.080;11.116;2023-05-09T00:26:10;99596.63;;;16.06;90.81
68988;BME280;56038;46.080;11.116;2023-05-09T00:31:11;99590.41;;;16.07;90.53
68988;BME280;56038;46.080;11.116;2023-05-09T00:36:15;99586.84;;;16.08;90.35
68988;BME280;56038;46.080;11.116;2023-05-09T00:41:16;99579.78;;;16.08;90.21
68988;BME280;56038;46.080;11.116;2023-05-09T00:46:18;99592.97;;;16.08;90.46
68988;BME280;56038;46.080;11.116;2023-05-09T00:51:21;99581.84;;;16.03;90.71
68988;BME280;56038;46.080;11.116;2023-05-09T00:56:24;99578.38;;;16.03;90.95
68988;BME280;56038;46.080;11.116;2023-05-09T01:01:26;99575.63;;;16.04;90.60
68988;BME280;56038;46.080;11.116;2023-05-09T01:06:36;99566.97;;;16.02;90.33
68988;BME280;56038;46.080;11.116;2023-05-09T01:11:43;99564.34;;;16.02;90.20
68988;BME280;56038;46.080;11.116;2023-05-09T01:16:50;99565.28;;;16.01;90.06
68988;BME280;56038;46.080;11.116;2023-05-09T01:21:57;99567.16;;;15.99;90.01
68988;BME280;56038;46.080;11.116;2023-05-09T01:27:14;99560.22;;;15.98;89.93
68988;BME280;56038;46.080;11.116;2023-05-09T01:32:24;99568.53;;;15.91;89.98
68988;BME280;56038;46.080;11.116;2023-05-09T01:37:28;99567.69;;;15.90;89.86
68988;BME280;56038;46.080;11.116;2023-05-09T01:42:38;99567.97;;;15.85;90.03
68988;BME280;56038;46.080;11.116;2023-05-09T01:47:43;99562.75;;;15.70;91.59
68988;BME280;56038;46.080;11.116;2023-05-09T01:52:46;99555.03;;;15.67;91.50
68988;BME280;56038;46.080;11.116;2023-05-09T01:57:49;99557.50;;;15.70;90.78
68988;BME280;56038;46.080;11.116;2023-05-09T02:02:53;99560.59;;;15.76;90.15
68988;BME280;56038;46.080;11.116;2023-05-09T02:07:56;99559.75;;;15.76;90.22
68988;BME280;56038;46.080;11.116;2023-05-09T02:12:57;99557.88;;;15.78;90.21
68988;BME280;56038;46.080;11.116;2023-05-09T02:18:00;99553.72;;;15.74;90.56
68988;BME280;56038;46.080;11.116;2023-05-09T02:23:02;99547.81;;;15.70;91.17
68988;BME280;56038;46.080;11.116;2023-05-09T02:28:04;99549.06;;;15.79;90.56
68988;BME280;56038;46.080;11.116;2023-05-09T02:33:11;99550.66;;;15.81;90.52
68988;BME280;56038;46.080;11.116;2023-05-09T02:38:14;99556.03;;;15.80;90.93
68988;BME280;56038;46.080;11.116;2023-05-09T02:43:16;99550.44;;;15.70;90.95
68988;BME280;56038;46.080;11.116;2023-05-09T02:48:19;99544.13;;;15.73;90.85
68988;BME280;56038;46.080;11.116;2023-05-09T02:53:21;99542.44;;;15.72;91.33
68988;BME280;56038;46.080;11.116;2023-05-09T02:58:22;99534.72;;;15.69;91.34
68988;BME280;56038;46.080;11.116;2023-05-09T03:03:25;99531.44;;;15.65;91.64
68988;BME280;56038;46.080;11.116;2023-05-09T03:08:27;99534.16;;;15.64;92.24
68988;BME280;56038;46.080;11.116;2023-05-09T03:13:29;99527.00;;;15.66;91.75
68988;BME280;56038;46.080;11.116;2023-05-09T03:18:32;99530.59;;;15.65;91.79
68988;BME280;56038;46.080;11.116;2023-05-09T03:23:33;99528.25;;;15.58;91.62
68988;BME280;56038;46.080;11.116;2023-05-09T03:28:36;99518.59;;;15.59;91.55
68988;BME280;56038;46.080;11.116;2023-05-09T03:33:39;99524.63;;;15.61;91.37
68988;BME280;56038;46.080;11.116;2023-05-09T03:38:41;99527.94;;;15.65;91.36
68988;BME280;56038;46.080;11.116;2023-05-09T03:43:42;99519.13;;;15.66;91.06
68988;BME280;56038;46.080;11.116;2023-05-09T03:48:46;99528.78;;;15.65;91.35
68988;BME280;56038;46.080;11.116;2023-05-09T03:53:47;99527.84;;;15.66;91.31
68988;BME280;56038;46.080;11.116;2023-05-09T03:58:49;99533.78;;;15.70;91.12
68988;BME280;56038;46.080;11.116;2023-05-09T04:03:52;99533.78;;;15.70;91.12
68988;BME280;56038;46.080;11.116;2023-05-09T04:08:54;99536.50;;;15.68;91.23
68988;BME280;56038;46.080;11.116;2023-05-09T04:13:55;99538.03;;;15.72;91.19
68988;BME280;56038;46.080;11.116;2023-05-09T04:18:59;99540.75;;;15.71;90.91
68988;BME280;56038;46.080;11.116;2023-05-09T04:24:00;99545.16;;;15.70;91.44
68988;BME280;56038;46.080;11.116;2023-05-09T04:29:02;99538.59;;;15.77;91.03
68988;BME280;56038;46.080;11.116;2023-05-09T04:34:05;99547.34;;;15.78;90.89
68988;BME280;56038;46.080;11.116;2023-05-09T04:39:07;99542.00;;;15.79;91.15
68988;BME280;56038;46.080;11.116;2023-05-09T04:44:09;99547.00;;;15.84;90.64
68988;BME280;56038;46.080;11.116;2023-05-09T04:49:12;99546.34;;;15.80;90.83
68988;BME280;56038;46.080;11.116;2023-05-09T04:54:14;99543.59;;;15.82;90.84
68988;BME280;56038;46.080;11.116;2023-05-09T04:59:16;99543.16;;;15.90;90.33
68988;BME280;56038;46.080;11.116;2023-05-09T05:04:19;99547.56;;;15.89;90.40
68988;BME280;56038;46.080;11.116;2023-05-09T05:09:21;99553.78;;;15.88;90.69
68988;BME280;56038;46.080;11.116;2023-05-09T05:14:22;99556.91;;;15.95;90.29
68988;BME280;56038;46.080;11.116;2023-05-09T05:19:25;99543.47;;;15.99;90.23
68988;BME280;56038;46.080;11.116;2023-05-09T05:24:27;99553.44;;;16.08;90.08
68988;BME280;56038;46.080;11.116;2023-05-09T05:29:29;99551.00;;;16.20;89.85
68988;BME280;56038;46.080;11.116;2023-05-09T05:34:32;99550.56;;;16.27;90.02
68988;BME280;56038;46.080;11.116;2023-05-09T05:39:33;99551.31;;;16.29;90.74
68988;BME280;56038;46.080;11.116;2023-05-09T05:44:35;99560.81;;;16.32;91.16
68988;BME280;56038;46.080;11.116;2023-05-09T05:49:38;99564.09;;;16.35;91.32
68988;BME280;56038;46.080;11.116;2023-05-09T05:54:40;99559.50;;;16.39;91.21
68988;BME280;56038;46.080;11.116;2023-05-09T05:59:41;99562.81;;;16.42;90.80
68988;BME280;56038;46.080;11.116;2023-05-09T06:04:44;99567.91;;;16.45;90.54
68988;BME280;56038;46.080;11.116;2023-05-09T06:09:46;99570.34;;;16.48;90.26
68988;BME280;56038;46.080;11.116;2023-05-09T06:14:48;99562.72;;;16.58;89.85
68988;BME280;56038;46.080;11.116;2023-05-09T06:19:51;99554.41;;;16.64;89.38
68988;BME280;56038;46.080;11.116;2023-05-09T06:24:52;99561.22;;;16.83;88.86
68988;BME280;56038;46.080;11.116;2023-05-09T06:29:54;99555.50;;;17.03;87.91
68988;BME280;56038;46.080;11.116;2023-05-09T06:34:57;99546.59;;;17.18;87.51
68988;BME280;56038;46.080;11.116;2023-05-09T06:39:58;99551.00;;;17.05;88.28
68988;BME280;56038;46.080;11.116;2023-05-09T06:45:00;99556.69;;;17.26;87.93
68988;BME280;56038;46.080;11.116;2023-05-09T06:50:04;99548.09;;;17.49;86.89
68988;BME280;56038;46.080;11.116;2023-05-09T06:55:07;99546.16;;;17.65;85.92
68988;BME280;56038;46.080;11.116;2023-05-09T07:00:10;99541.81;;;17.64;84.92
68988;BME280;56038;46.080;11.116;2023-05-09T07:05:13;99530.41;;;17.64;84.54
68988;BME280;56038;46.080;11.116;2023-05-09T07:10:15;99536.00;;;17.86;84.35
68988;BME280;56038;46.080;11.116;2023-05-09T07:15:17;99527.53;;;17.94;83.98
68988;BME280;56038;46.080;11.116;2023-05-09T07:20:20;99521.41;;;18.19;82.80
68988;BME280;56038;46.080;11.116;2023-05-09T07:25:22;99515.69;;;18.50;81.46
68988;BME280;56038;46.080;11.116;2023-05-09T07:30:24;99512.09;;;18.64;80.33
68988;BME280;56038;46.080;11.116;2023-05-09T07:35:27;99510.66;;;18.84;79.61
68988;BME280;56038;46.080;11.116;2023-05-09T07:40:28;99511.94;;;19.15;78.49
68988;BME280;56038;46.080;11.116;2023-05-09T07:45:30;99498.00;;;19.00;77.50
68988;BME280;56038;46.080;11.116;2023-05-09T07:50:33;99507.09;;;19.33;76.44
68988;BME280;56038;46.080;11.116;2023-05-09T07:55:34;99491.84;;;19.48;75.66
68988;BME280;56038;46.080;11.116;2023-05-09T08:00:36;99490.16;;;19.47;75.53
68988;BME280;56038;46.080;11.116;2023-05-09T08:05:53;99478.25;;;19.52;74.42
68988;BME280;56038;46.080;11.116;2023-05-09T08:11:03;99471.09;;;19.65;74.52
68988;BME280;56038;46.080;11.116;2023-05-09T08:16:05;99471.41;;;19.96;72.58
68988;BME280;56038;46.080;11.116;2023-05-09T08:21:08;99467.41;;;19.44;71.33
68988;BME280;56038;46.080;11.116;2023-05-09T08:26:10;99450.78;;;19.77;71.95
68988;BME280;56038;46.080;11.116;2023-05-09T08:31:11;99456.69;;;20.03;70.77
68988;BME280;56038;46.080;11.116;2023-05-09T08:36:15;99442.50;;;20.26;70.26
68988;BME280;56038;46.080;11.116;2023-05-09T08:41:16;99449.00;;;20.11;69.92
68988;BME280;56038;46.080;11.116;2023-05-09T08:46:24;99447.34;;;20.44;69.70
68988;BME280;56038;46.080;11.116;2023-05-09T08:51:29;99435.75;;;20.56;69.49
68988;BME280;56038;46.080;11.116;2023-05-09T08:56:33;99439.69;;;20.73;68.34
68988;BME280;56038;46.080;11.116;2023-05-09T09:01:35;99431.81;;;20.82;68.13
68988;BME280;56038;46.080;11.116;2023-05-09T09:06:39;99425.38;;;20.96;67.96
68988;BME280;56038;46.080;11.116;2023-05-09T09:11:41;99426.81;;;20.68;68.18
68988;BME280;56038;46.080;11.116;2023-05-09T09:16:46;99418.75;;;20.14;66.16
68988;BME280;56038;46.080;11.116;2023-05-09T09:21:52;99410.75;;;19.69;68.11
68988;BME280;56038;46.080;11.116;2023-05-09T09:26:55;99413.69;;;20.22;67.95
68988;BME280;56038;46.080;11.116;2023-05-09T09:32:00;99406.50;;;20.78;66.18
68988;BME280;56038;46.080;11.116;2023-05-09T09:37:05;99387.06;;;21.10;66.43
68988;BME280;56038;46.080;11.116;2023-05-09T09:42:11;99380.19;;;20.75;65.63
68988;BME280;56038;46.080;11.116;2023-05-09T09:47:13;99379.94;;;20.78;65.20
68988;BME280;56038;46.080;11.116;2023-05-09T09:52:23;99374.59;;;20.89;63.34
68988;BME280;56038;46.080;11.116;2023-05-09T09:57:32;99369.16;;;20.59;62.67
68988;BME280;56038;46.080;11.116;2023-05-09T10:02:34;99361.66;;;20.64;63.90
68988;BME280;56038;46.080;11.116;2023-05-09T10:07:50;99356.44;;;20.74;63.06
68988;BME280;56038;46.080;11.116;2023-05-09T10:13:09;99358.72;;;20.78;63.03
68988;BME280;56038;46.080;11.116;2023-05-09T10:23:59;99347.00;;;21.34;63.94
68988;BME280;56038;46.080;11.116;2023-05-09T10:29:07;99331.63;;;21.16;64.56
68988;BME280;56038;46.080;11.116;2023-05-09T10:34:11;99332.72;;;20.61;65.35
68988;BME280;56038;46.080;11.116;2023-05-09T10:39:16;99326.41;;;20.73;64.55
68988;BME280;56038;46.080;11.116;2023-05-09T10:44:18;99322.34;;;21.11;64.61
68988;BME280;56038;46.080;11.116;2023-05-09T10:49:20;99324.19;;;21.31;64.15
68988;BME280;56038;46.080;11.116;2023-05-09T10:54:27;99311.31;;;21.57;63.45
68988;BME280;56038;46.080;11.116;2023-05-09T10:59:35;99302.06;;;21.82;62.98
68988;BME280;56038;46.080;11.116;2023-05-09T11:04:37;99299.31;;;21.32;63.39
68988;BME280;56038;46.080;11.116;2023-05-09T11:09:40;99286.97;;;21.62;63.28
68988;BME280;56038;46.080;11.116;2023-05-09T11:14:43;99275.47;;;21.82;63.05
68988;BME280;56038;46.080;11.116;2023-05-09T11:20:00;99272.56;;;21.55;61.91
68988;BME280;56038;46.080;11.116;2023-05-09T11:25:07;99274.94;;;21.27;63.24
68988;BME280;56038;46.080;11.116;2023-05-09T11:30:11;99273.69;;;20.89;64.32
68988;BME280;56038;46.080;11.116;2023-05-09T11:35:14;99279.13;;;20.67;65.69
68988;BME280;56038;46.080;11.116;2023-05-09T11:40:20;99274.34;;;20.07;68.61
68988;BME280;56038;46.080;11.116;2023-05-09T11:45:22;99266.78;;;20.34;67.30
68988;BME280;56038;46.080;11.116;2023-05-09T11:50:24;99265.94;;;20.45;66.96
68988;BME280;56038;46.080;11.116;2023-05-09T11:55:27;99256.66;;;20.39;66.75
68988;BME280;56038;46.080;11.116;2023-05-09T12:00:29;99252.06;;;21.15;64.15
68988;BME280;56038;46.080;11.116;2023-05-09T12:05:41;99248.72;;;21.43;62.08
68988;BME280;56038;46.080;11.116;2023-05-09T12:10:52;99253.53;;;21.08;64.22
68988;BME280;56038;46.080;11.116;2023-05-09T12:15:59;99253.53;;;20.66;63.30
68988;BME280;56038;46.080;11.116;2023-05-09T12:21:00;99254.63;;;20.63;64.53
68988;BME280;56038;46.080;11.116;2023-05-09T12:26:04;99246.50;;;20.76;64.27
68988;BME280;56038;46.080;11.116;2023-05-09T12:31:06;99251.06;;;20.21;65.08
68988;BME280;56038;46.080;11.116;2023-05-09T12:36:10;99247.06;;;20.16;66.11
68988;BME280;56038;46.080;11.116;2023-05-09T12:41:16;99254.00;;;19.51;70.41
68988;BME280;56038;46.080;11.116;2023-05-09T12:46:18;99250.91;;;19.46;70.37
68988;BME280;56038;46.080;11.116;2023-05-09T12:51:21;99259.19;;;19.19;71.00
68988;BME280;56038;46.080;11.116;2023-05-09T12:56:24;99241.59;;;19.40;71.40
68988;BME280;56038;46.080;11.116;2023-05-09T13:01:26;99240.28;;;19.35;71.72
68988;BME280;56038;46.080;11.116;2023-05-09T13:06:46;99231.22;;;19.04;72.06
68988;BME280;56038;46.080;11.116;2023-05-09T13:11:49;99234.00;;;19.02;71.87
68988;BME280;56038;46.080;11.116;2023-05-09T13:16:51;99227.50;;;19.06;72.41
68988;BME280;56038;46.080;11.116;2023-05-09T13:21:53;99228.13;;;19.10;72.38
68988;BME280;56038;46.080;11.116;2023-05-09T13:26:56;99226.56;;;19.19;71.60
68988;BME280;56038;46.080;11.116;2023-05-09T13:31:58;99228.72;;;19.25;71.90
68988;BME280;56038;46.080;11.116;2023-05-09T13:37:00;99227.75;;;19.03;72.16
68988;BME280;56038;46.080;11.116;2023-05-09T13:42:03;99219.28;;;18.87;71.27
68988;BME280;56038;46.080;11.116;2023-05-09T13:47:04;99221.09;;;18.87;72.25
68988;BME280;56038;46.080;11.116;2023-05-09T13:52:07;99221.22;;;18.26;72.89
68988;BME280;56038;46.080;11.116;2023-05-09T13:57:10;99227.09;;;17.45;78.02
68988;BME280;56038;46.080;11.116;2023-05-09T14:02:11;99226.69;;;17.39;78.78
68988;BME280;56038;46.080;11.116;2023-05-09T14:07:13;99227.78;;;17.60;78.53
68988;BME280;56038;46.080;11.116;2023-05-09T14:12:17;99218.31;;;17.70;78.77
68988;BME280;56038;46.080;11.116;2023-05-09T14:17:19;99213.91;;;17.82;78.76
68988;BME280;56038;46.080;11.116;2023-05-09T14:22:20;99202.84;;;17.64;78.32
68988;BME280;56038;46.080;11.116;2023-05-09T14:27:23;99208.56;;;17.58;79.20
68988;BME280;56038;46.080;11.116;2023-05-09T14:32:25;99202.56;;;17.69;79.33
68988;BME280;56038;46.080;11.116;2023-05-09T14:37:27;99197.56;;;17.77;79.16
68988;BME280;56038;46.080;11.116;2023-05-09T14:42:30;99209.03;;;17.88;78.54
68988;BME280;56038;46.080;11.116;2023-05-09T14:47:32;99193.13;;;17.77;78.60
68988;BME280;56038;46.080;11.116;2023-05-09T14:52:34;99185.41;;;17.74;78.91
68988;BME280;56038;46.080;11.116;2023-05-09T14:57:37;99185.31;;;17.63;78.81
68988;BME280;56038;46.080;11.116;2023-05-09T15:02:38;99183.84;;;17.59;79.39
68988;BME280;56038;46.080;11.116;2023-05-09T15:07:41;99186.16;;;17.63;79.07
68988;BME280;56038;46.080;11.116;2023-05-09T15:12:44;99180.03;;;17.76;78.83
68988;BME280;56038;46.080;11.116;2023-05-09T15:17:45;99175.03;;;17.84;77.92
68988;BME280;56038;46.080;11.116;2023-05-09T15:22:48;99170.84;;;17.92;77.97
68988;BME280;56038;46.080;11.116;2023-05-09T15:27:52;99163.00;;;18.04;77.55
68988;BME280;56038;46.080;11.116;2023-05-09T15:32:53;99161.31;;;18.14;76.64
68988;BME280;56038;46.080;11.116;2023-05-09T15:37:55;99155.13;;;18.15;76.39
68988;BME280;56038;46.080;11.116;2023-05-09T15:42:58;99150.66;;;18.15;76.23
68988;BME280;56038;46.080;11.116;2023-05-09T15:48:04;99150.25;;;18.09;76.67
68988;BME280;56038;46.080;11.116;2023-05-09T15:53:06;99136.94;;;18.10;77.26
68988;BME280;56038;46.080;11.116;2023-05-09T15:58:09;99129.41;;;18.17;77.52
68988;BME280;56038;46.080;11.116;2023-05-09T16:03:13;99129.16;;;18.20;76.57
68988;BME280;56038;46.080;11.116;2023-05-09T16:08:15;99131.34;;;18.26;76.68
68988;BME280;56038;46.080;11.116;2023-05-09T16:13:18;99118.84;;;18.28;76.38
68988;BME280;56038;46.080;11.116;2023-05-09T16:18:19;99114.28;;;18.30;76.64
68988;BME280;56038;46.080;11.116;2023-05-09T16:23:22;99122.00;;;18.33;76.93
68988;BME280;56038;46.080;11.116;2023-05-09T16:28:26;99118.34;;;18.23;77.17
68988;BME280;56038;46.080;11.116;2023-05-09T16:33:28;99109.47;;;18.24;77.08
68988;BME280;56038;46.080;11.116;2023-05-09T16:38:30;99100.56;;;18.25;77.68
68988;BME280;56038;46.080;11.116;2023-05-09T16:43:34;99097.88;;;18.03;78.68
68988;BME280;56038;46.080;11.116;2023-05-09T16:48:36;99096.91;;;18.04;76.55
68988;BME280;56038;46.080;11.116;2023-05-09T16:53:37;99098.56;;;17.93;74.96
68988;BME280;56038;46.080;11.116;2023-05-09T16:58:40;99097.72;;;17.93;74.81
68988;BME280;56038;46.080;11.116;2023-05-09T17:03:43;99089.72;;;17.82;72.74
68988;BME280;56038;46.080;11.116;2023-05-09T17:08:45;99090.31;;;17.74;71.25
68988;BME280;56038;46.080;11.116;2023-05-09T17:13:48;99086.25;;;17.57;71.70
68988;BME280;56038;46.080;11.116;2023-05-09T17:18:50;99084.44;;;17.58;70.52
68988;BME280;56038;46.080;11.116;2023-05-09T17:23:52;99083.13;;;17.63;70.73
68988;BME280;56038;46.080;11.116;2023-05-09T17:28:55;99073.16;;;17.56;69.99
68988;BME280;56038;46.080;11.116;2023-05-09T17:33:57;99076.03;;;17.53;69.05
68988;BME280;56038;46.080;11.116;2023-05-09T17:38:58;99081.84;;;17.45;67.52
68988;BME280;56038;46.080;11.116;2023-05-09T17:44:01;99072.53;;;17.52;68.76
68988;BME280;56038;46.080;11.116;2023-05-09T17:49:03;99061.22;;;17.50;68.16
68988;BME280;56038;46.080;11.116;2023-05-09T17:54:06;99061.44;;;17.47;67.67
68988;BME280;56038;46.080;11.116;2023-05-09T17:59:11;99059.38;;;17.40;67.11
68988;BME280;56038;46.080;11.116;2023-05-09T18:04:12;99058.66;;;17.38;66.57
68988;BME280;56038;46.080;11.116;2023-05-09T18:09:14;99068.81;;;17.31;67.18
68988;BME280;56038;46.080;11.116;2023-05-09T18:14:17;99059.81;;;17.33;67.12
68988;BME280;56038;46.080;11.116;2023-05-09T18:19:18;99059.53;;;17.25;67.67
68988;BME280;56038;46.080;11.116;2023-05-09T18:24:20;99057.91;;;17.35;65.45
68988;BME280;56038;46.080;11.116;2023-05-09T18:29:23;99063.28;;;17.34;66.36
68988;BME280;56038;46.080;11.116;2023-05-09T18:34:25;99064.72;;;17.27;67.03
68988;BME280;56038;46.080;11.116;2023-05-09T18:39:27;99055.22;;;17.24;66.91
68988;BME280;56038;46.080;11.116;2023-05-09T18:44:30;99068.84;;;17.18;67.78
68988;BME280;56038;46.080;11.116;2023-05-09T18:49:32;99060.72;;;17.21;68.22
68988;BME280;56038;46.080;11.116;2023-05-09T18:54:34;99062.72;;;17.18;68.17
68988;BME280;56038;46.080;11.116;2023-05-09T18:59:38;99059.25;;;17.17;67.37
68988;BME280;56038;46.080;11.116;2023-05-09T19:04:40;99064.13;;;17.11;67.57
68988;BME280;56038;46.080;11.116;2023-05-09T19:09:41;99064.63;;;17.16;67.86
68988;BME280;56038;46.080;11.116;2023-05-09T19:14:44;99064.75;;;17.14;67.06
68988;BME280;56038;46.080;11.116;2023-05-09T19:19:47;99069.53;;;17.09;67.87
68988;BME280;56038;46.080;11.116;2023-05-09T19:24:49;99078.63;;;17.05;67.66
68988;BME280;56038;46.080;11.116;2023-05-09T19:29:53;99067.22;;;17.04;67.87
68988;BME280;56038;46.080;11.116;2023-05-09T19:34:54;99076.47;;;17.10;66.77
68988;BME280;56038;46.080;11.116;2023-05-09T19:39:57;99075.75;;;17.08;66.42
68988;BME280;56038;46.080;11.116;2023-05-09T19:45:02;99073.38;;;17.16;65.20
68988;BME280;56038;46.080;11.116;2023-05-09T19:50:05;99070.00;;;17.27;63.16
68988;BME280;56038;46.080;11.116;2023-05-09T19:55:07;99069.00;;;17.41;62.19
68988;BME280;56038;46.080;11.116;2023-05-09T20:00:11;99070.19;;;17.36;62.82
68988;BME280;56038;46.080;11.116;2023-05-09T20:05:13;99074.53;;;17.25;63.75
68988;BME280;56038;46.080;11.116;2023-05-09T20:10:15;99073.50;;;17.15;64.82
68988;BME280;56038;46.080;11.116;2023-05-09T20:15:18;99069.53;;;17.09;65.83
68988;BME280;56038;46.080;11.116;2023-05-09T20:20:20;99077.25;;;16.99;66.84
68988;BME280;56038;46.080;11.116;2023-05-09T20:25:22;99073.66;;;16.88;67.76
68988;BME280;56038;46.080;11.116;2023-05-09T20:30:25;99085.63;;;16.81;68.67
68988;BME280;56038;46.080;11.116;2023-05-09T20:35:27;99069.88;;;16.66;70.10
68988;BME280;56038;46.080;11.116;2023-05-09T20:40:28;99069.59;;;16.58;70.67
68988;BME280;56038;46.080;11.116;2023-05-09T20:45:31;99078.84;;;16.51;71.27
68988;BME280;56038;46.080;11.116;2023-05-09T20:50:33;99064.50;;;16.55;70.96
68988;BME280;56038;46.080;11.116;2023-05-09T20:55:35;99073.38;;;16.41;71.90
68988;BME280;56038;46.080;11.116;2023-05-09T21:00:38;99066.22;;;16.43;72.26
68988;BME280;56038;46.080;11.116;2023-05-09T21:05:49;99063.97;;;16.50;71.37
68988;BME280;56038;46.080;11.116;2023-05-09T21:10:59;99056.69;;;16.54;71.45
68988;BME280;56038;46.080;11.116;2023-05-09T21:16:02;99054.94;;;16.41;70.61
68988;BME280;56038;46.080;11.116;2023-05-09T21:21:05;99045.84;;;16.33;70.96
68988;BME280;56038;46.080;11.116;2023-05-09T21:26:07;99047.03;;;16.29;70.81
68988;BME280;56038;46.080;11.116;2023-05-09T21:31:10;99047.03;;;16.29;70.13
68988;BME280;56038;46.080;11.116;2023-05-09T21:36:12;99053.53;;;16.23;71.47
68988;BME280;56038;46.080;11.116;2023-05-09T21:41:13;99060.28;;;16.14;71.31
68988;BME280;56038;46.080;11.116;2023-05-09T21:46:16;99047.19;;;16.00;72.76
68988;BME280;56038;46.080;11.116;2023-05-09T21:51:18;99058.25;;;16.05;70.21
68988;BME280;56038;46.080;11.116;2023-05-09T21:56:20;99052.06;;;16.19;69.48
68988;BME280;56038;46.080;11.116;2023-05-09T22:01:23;99050.66;;;15.88;74.14
68988;BME280;56038;46.080;11.116;2023-05-09T22:06:35;99043.78;;;15.73;75.21
68988;BME280;56038;46.080;11.116;2023-05-09T22:11:40;99038.66;;;15.57;75.32
68988;BME280;56038;46.080;11.116;2023-05-09T22:16:43;99045.91;;;15.53;76.07
68988;BME280;56038;46.080;11.116;2023-05-09T22:21:45;99034.84;;;15.48;76.13
68988;BME280;56038;46.080;11.116;2023-05-09T22:26:48;99033.06;;;15.49;74.77
68988;BME280;56038;46.080;11.116;2023-05-09T22:31:51;99041.06;;;15.47;75.49
68988;BME280;56038;46.080;11.116;2023-05-09T22:36:53;99031.25;;;15.49;75.61
68988;BME280;56038;46.080;11.116;2023-05-09T22:41:56;99019.78;;;15.50;75.29
68988;BME280;56038;46.080;11.116;2023-05-09T22:46:59;99028.88;;;15.59;73.25
68988;BME280;56038;46.080;11.116;2023-05-09T22:52:00;99030.75;;;15.57;74.53
68988;BME280;56038;46.080;11.116;2023-05-09T22:57:02;99029.38;;;15.51;74.71
68988;BME280;56038;46.080;11.116;2023-05-09T23:02:05;99008.94;;;15.55;74.08
68988;BME280;56038;46.080;11.116;2023-05-09T23:07:07;99024.63;;;15.56;72.92
68988;BME280;56038;46.080;11.116;2023-05-09T23:12:09;99016.94;;;15.53;72.90
68988;BME280;56038;46.080;11.116;2023-05-09T23:17:12;99002.09;;;15.52;73.07
68988;BME280;56038;46.080;11.116;2023-05-09T23:22:14;99013.16;;;15.57;72.91
68988;BME280;56038;46.080;11.116;2023-05-09T23:27:15;99014.84;;;15.58;73.82
68988;BME280;56038;46.080;11.116;2023-05-09T23:32:18;99007.84;;;15.45;75.21
68988;BME280;56038;46.080;11.116;2023-05-09T23:37:20;98998.63;;;15.25;77.46
68988;BME280;56038;46.080;11.116;2023-05-09T23:42:22;98991.75;;;15.10;78.58
68988;BME280;56038;46.080;11.116;2023-05-09T23:47:25;98989.66;;;14.88;81.10
68988;BME280;56038;46.080;11.116;2023-05-09T23:52:26;98985.88;;;14.92;80.07
68988;BME280;56038;46.080;11.116;2023-05-09T23:57:28;98983.56;;;14.87;80.29
